Time;durP1;ratioP1;P1;durP2;ratioP2;P2;SDS_P1;SDS_P2;PMS_P1;PMS_P2;Temp;Humidity;BMP_temperature;BMP_pressure;BME280_temperature;BME280_humidity;BME280_pressure;Samples;Min_cycle;Max_cycle;Signal;HPM_P1;HPM_P2
2023/10/22 00:02:15;;;;;;;0.20;0.20;;;15.70;99.90;;;;;;4990272;28;20026;-80
2023/10/22 00:04:41;;;;;;;0.40;0.40;;;15.60;99.90;;;;;;5000210;28;20098;-80
2023/10/22 00:07:07;;;;;;;0.45;0.45;;;15.50;99.90;;;;;;4981438;28;20049;-79
2023/10/22 00:09:33;;;;;;;0.20;0.20;;;15.50;99.90;;;;;;4999836;28;20022;-80
2023/10/22 00:11:59;;;;;;;0.20;0.20;;;15.40;99.90;;;;;;4996075;28;20038;-80
2023/10/22 00:14:25;;;;;;;0.17;0.17;;;15.50;99.90;;;;;;4996707;28;20105;-80
2023/10/22 00:16:51;;;;;;;0.40;0.40;;;15.40;99.90;;;;;;4979417;28;20457;-80
2023/10/22 00:19:16;;;;;;;0.40;0.40;;;15.40;99.90;;;;;;4985907;28;20056;-80
2023/10/22 00:21:42;;;;;;;0.20;0.20;;;15.40;99.90;;;;;;4997606;28;20462;-80
2023/10/22 00:24:10;;;;;;;0.13;0.13;;;15.30;99.90;;;;;;4977226;28;20033;-80
2023/10/22 00:26:36;;;;;;;0.50;0.50;;;15.40;99.90;;;;;;4998960;28;20029;-80
2023/10/22 00:29:02;;;;;;;0.10;0.10;;;15.50;99.90;;;;;;4978509;28;20056;-80
2023/10/22 00:31:28;;;;;;;0.20;0.20;;;15.40;99.90;;;;;;4986663;28;20181;-80
2023/10/22 00:33:53;;;;;;;0.20;0.20;;;15.40;99.90;;;;;;4998168;28;20026;-80
2023/10/22 00:36:19;;;;;;;0.43;0.30;;;15.50;99.90;;;;;;4999304;28;20155;-80
2023/10/22 00:38:44;;;;;;;0.20;0.20;;;15.50;99.90;;;;;;4998597;28;20033;-80
2023/10/22 00:41:10;;;;;;;0.20;0.20;;;15.50;99.90;;;;;;5014606;28;20449;-80
2023/10/22 00:43:35;;;;;;;0.15;0.15;;;15.50;99.90;;;;;;4996843;28;20025;-82
2023/10/22 00:46:02;;;;;;;0.20;0.20;;;15.30;99.90;;;;;;4998997;28;20033;-80
2023/10/22 00:48:28;;;;;;;0.20;0.20;;;15.40;99.90;;;;;;4980607;28;20041;-80
2023/10/22 00:50:55;;;;;;;0.20;0.20;;;15.50;99.90;;;;;;4997776;28;20029;-80
2023/10/22 00:53:22;;;;;;;0.22;0.22;;;15.40;99.90;;;;;;4997005;28;20045;-80
2023/10/22 00:55:48;;;;;;;0.20;0.20;;;15.30;99.90;;;;;;4998092;28;20101;-80
2023/10/22 00:58:20;;;;;;;0.20;0.20;;;15.20;99.90;;;;;;4985969;28;20022;-80
2023/10/22 01:00:46;;;;;;;0.10;0.10;;;15.20;99.90;;;;;;5012893;28;20025;-80
2023/10/22 01:03:12;;;;;;;0.77;0.77;;;15.30;99.90;;;;;;5000547;28;20449;-80
2023/10/22 01:05:38;;;;;;;0.40;0.40;;;15.40;99.90;;;;;;4995380;28;20281;-80
2023/10/22 01:08:05;;;;;;;0.10;0.10;;;15.40;99.90;;;;;;4995612;28;20113;-80
2023/10/22 01:10:31;;;;;;;0.35;0.35;;;15.30;99.90;;;;;;4980031;28;20017;-80
2023/10/22 01:12:58;;;;;;;0.20;0.20;;;15.30;99.90;;;;;;4998699;28;20025;-80
2023/10/22 01:15:23;;;;;;;0.10;0.10;;;15.40;99.90;;;;;;4995831;28;20069;-81
2023/10/22 01:17:49;;;;;;;0.10;0.10;;;15.30;99.90;;;;;;4980986;28;20433;-80
2023/10/22 01:20:18;;;;;;;0.13;0.13;;;15.30;99.90;;;;;;4988620;28;20033;-80
2023/10/22 01:22:43;;;;;;;0.30;0.30;;;15.30;99.90;;;;;;4983392;28;20014;-80
2023/10/22 01:25:09;;;;;;;0.55;0.55;;;15.30;99.90;;;;;;4981933;28;20076;-80
2023/10/22 01:27:36;;;;;;;0.13;0.13;;;15.40;99.90;;;;;;5010315;28;20026;-80
2023/10/22 01:30:02;;;;;;;0.20;0.20;;;15.40;99.90;;;;;;5000965;28;20030;-80
2023/10/22 01:32:31;;;;;;;0.20;0.20;;;15.30;99.90;;;;;;5001803;28;20101;-80
2023/10/22 01:34:57;;;;;;;0.10;0.10;;;15.30;99.90;;;;;;5001435;28;20086;-80
2023/10/22 01:37:23;;;;;;;0.10;0.10;;;15.40;99.90;;;;;;5001309;28;20537;-79
2023/10/22 01:39:49;;;;;;;0.13;0.13;;;15.30;99.90;;;;;;5001978;28;20257;-80
2023/10/22 01:42:15;;;;;;;0.10;0.10;;;15.30;99.90;;;;;;4998173;28;20026;-80
2023/10/22 01:44:41;;;;;;;0.13;0.13;;;15.30;99.90;;;;;;4981625;28;20026;-80
2023/10/22 01:47:06;;;;;;;0.20;0.20;;;15.30;99.90;;;;;;5004196;28;20022;-80
2023/10/22 01:49:35;;;;;;;0.10;0.10;;;15.20;99.90;;;;;;4997584;28;20544;-80
2023/10/22 01:52:00;;;;;;;0.20;0.20;;;15.10;99.90;;;;;;4986679;28;21076;-80
2023/10/22 01:54:28;;;;;;;0.10;0.10;;;15.10;99.90;;;;;;5003960;28;20018;-80
2023/10/22 01:56:54;;;;;;;0.10;0.10;;;15.10;99.90;;;;;;5008791;28;20461;-80
2023/10/22 01:59:22;;;;;;;0.10;0.10;;;15.00;99.90;;;;;;5002123;28;20029;-80
2023/10/22 02:01:47;;;;;;;0.10;0.10;;;15.10;99.90;;;;;;5001096;28;20105;-79
2023/10/22 02:04:13;;;;;;;0.20;0.20;;;15.20;99.90;;;;;;5002801;28;20148;-80
2023/10/22 02:06:38;;;;;;;0.30;0.30;;;15.10;99.90;;;;;;4984534;28;20038;-80
2023/10/22 02:09:04;;;;;;;0.10;0.10;;;15.00;99.90;;;;;;5000067;28;20092;-80
2023/10/22 02:11:30;;;;;;;0.10;0.10;;;15.10;99.90;;;;;;5001971;28;20280;-80
2023/10/22 02:13:56;;;;;;;0.20;0.20;;;15.00;99.90;;;;;;5000397;28;20021;-80
2023/10/22 02:16:22;;;;;;;0.10;0.10;;;15.00;99.90;;;;;;5001182;28;20022;-81
2023/10/22 02:18:48;;;;;;;0.20;0.20;;;15.00;99.90;;;;;;5000241;28;20034;-80
2023/10/22 02:21:15;;;;;;;0.20;0.20;;;15.10;99.90;;;;;;4986009;28;20029;-80
2023/10/22 02:23:41;;;;;;;0.20;0.20;;;15.00;99.90;;;;;;5000957;28;20072;-79
2023/10/22 02:26:07;;;;;;;0.20;0.20;;;14.90;99.90;;;;;;5003688;28;20061;-79
2023/10/22 02:28:33;;;;;;;0.10;0.10;;;15.00;99.90;;;;;;4988713;28;20088;-80
2023/10/22 02:30:59;;;;;;;0.20;0.20;;;14.90;99.90;;;;;;4999325;28;20500;-80
2023/10/22 02:33:25;;;;;;;0.10;0.10;;;15.00;99.90;;;;;;4982003;28;20481;-80
2023/10/22 02:35:53;;;;;;;0.10;0.10;;;15.00;99.90;;;;;;4997697;28;20056;-80
2023/10/22 02:38:18;;;;;;;0.20;0.20;;;15.00;99.90;;;;;;4999592;28;20034;-79
2023/10/22 02:40:48;;;;;;;0.75;0.75;;;14.90;99.90;;;;;;4999158;28;20212;-79
2023/10/22 02:43:14;;;;;;;0.17;0.17;;;15.00;99.90;;;;;;5012327;28;20022;-80
2023/10/22 02:45:53;;;;;;;0.55;0.55;;;15.00;99.90;;;;;;5000072;28;20025;-80
2023/10/22 02:48:19;;;;;;;0.20;0.20;;;15.00;99.90;;;;;;4995888;28;20029;-79
2023/10/22 02:50:45;;;;;;;0.10;0.10;;;14.90;99.90;;;;;;4997981;28;20465;-80
2023/10/22 02:53:12;;;;;;;0.10;0.10;;;14.90;99.90;;;;;;4999233;28;20041;-80
2023/10/22 02:55:38;;;;;;;0.20;0.20;;;14.90;99.90;;;;;;4976277;28;20025;-80
2023/10/22 02:58:04;;;;;;;0.17;0.17;;;14.90;99.90;;;;;;5015788;28;20080;-80
2023/10/22 03:00:29;;;;;;;0.10;0.10;;;14.80;99.90;;;;;;4994632;28;20022;-80
2023/10/22 03:02:55;;;;;;;0.10;0.10;;;14.80;99.90;;;;;;5000671;28;20034;-79
2023/10/22 03:05:21;;;;;;;0.20;0.20;;;14.90;99.90;;;;;;4997798;28;20486;-79
2023/10/22 03:07:46;;;;;;;0.20;0.20;;;14.80;99.90;;;;;;4987459;28;20045;-80
2023/10/22 03:10:12;;;;;;;0.13;0.13;;;14.80;99.90;;;;;;4999709;28;20029;-80
2023/10/22 03:12:38;;;;;;;0.10;0.10;;;14.80;99.90;;;;;;4998474;28;20113;-80
2023/10/22 03:15:04;;;;;;;0.10;0.10;;;14.80;99.90;;;;;;4999111;28;20120;-80
2023/10/22 03:17:30;;;;;;;0.13;0.13;;;14.80;99.90;;;;;;5009772;28;20034;-80
2023/10/22 03:19:58;;;;;;;0.20;0.20;;;14.80;99.90;;;;;;4997331;28;20032;-80
2023/10/22 03:22:24;;;;;;;0.10;0.10;;;14.80;99.90;;;;;;4998844;28;20018;-82
2023/10/22 03:24:50;;;;;;;0.90;0.90;;;14.80;99.90;;;;;;4995480;28;20044;-82
2023/10/22 03:27:17;;;;;;;0.10;0.10;;;14.70;99.90;;;;;;5000887;28;20503;-80
2023/10/22 03:29:43;;;;;;;0.10;0.10;;;14.70;99.90;;;;;;5000642;28;20470;-80
2023/10/22 03:32:09;;;;;;;0.20;0.20;;;14.80;99.90;;;;;;5000075;28;20029;-80
2023/10/22 03:34:36;;;;;;;0.20;0.20;;;14.90;99.90;;;;;;4996389;28;20033;-80
2023/10/22 03:37:04;;;;;;;0.10;0.10;;;14.80;99.90;;;;;;5001975;28;20088;-80
2023/10/22 03:39:33;;;;;;;0.10;0.10;;;14.80;99.90;;;;;;5002902;28;20176;-80
2023/10/22 03:41:59;;;;;;;0.10;0.10;;;14.80;99.90;;;;;;4986178;28;20844;-80
2023/10/22 03:44:25;;;;;;;0.10;0.10;;;14.80;99.90;;;;;;5002441;28;20102;-80
2023/10/22 03:46:50;;;;;;;0.20;0.20;;;14.80;99.90;;;;;;5000342;28;20021;-80
2023/10/22 03:49:16;;;;;;;0.20;0.20;;;14.90;99.90;;;;;;5011616;28;20483;-80
2023/10/22 03:51:42;;;;;;;0.30;0.30;;;14.80;99.90;;;;;;4992215;28;20029;-80
2023/10/22 03:54:07;;;;;;;0.10;0.10;;;14.80;99.90;;;;;;4998250;28;20444;-80
2023/10/22 03:56:34;;;;;;;0.20;0.20;;;14.70;99.90;;;;;;4983169;28;20021;-80
2023/10/22 03:59:02;;;;;;;0.20;0.20;;;14.70;99.90;;;;;;4983246;28;20018;-80
2023/10/22 04:01:28;;;;;;;0.20;0.20;;;14.60;99.90;;;;;;5001120;28;20040;-80
2023/10/22 04:03:53;;;;;;;0.10;0.10;;;14.50;99.90;;;;;;4996088;28;20386;-80
2023/10/22 04:06:19;;;;;;;0.10;0.10;;;14.60;99.90;;;;;;4998276;28;20042;-80
2023/10/22 04:08:44;;;;;;;0.20;0.20;;;14.50;99.90;;;;;;4981366;28;20026;-79
2023/10/22 04:11:10;;;;;;;0.10;0.10;;;14.50;99.90;;;;;;4983198;28;20635;-80
2023/10/22 04:13:36;;;;;;;0.20;0.20;;;14.40;99.90;;;;;;4996966;28;20037;-79
2023/10/22 04:16:02;;;;;;;0.20;0.20;;;14.30;99.90;;;;;;4998936;28;20398;-80
2023/10/22 04:18:27;;;;;;;0.20;0.20;;;14.50;99.90;;;;;;4981253;28;20402;-80
2023/10/22 04:20:53;;;;;;;0.10;0.10;;;14.40;99.90;;;;;;4980858;28;20030;-80
2023/10/22 04:23:19;;;;;;;0.20;0.20;;;14.40;99.90;;;;;;5000011;28;20037;-80
2023/10/22 04:25:45;;;;;;;0.10;0.10;;;14.40;99.90;;;;;;4996223;28;20033;-80
2023/10/22 04:28:12;;;;;;;0.10;0.10;;;14.40;99.90;;;;;;4998321;28;20031;-80
2023/10/22 04:30:45;;;;;;;0.10;0.10;;;14.50;99.90;;;;;;4998686;28;20111;-80
2023/10/22 04:33:11;;;;;;;0.10;0.10;;;14.50;99.90;;;;;;4994746;28;20501;-80
2023/10/22 04:35:37;;;;;;;0.10;0.10;;;14.30;99.90;;;;;;4998500;28;20030;-81
2023/10/22 04:38:03;;;;;;;0.10;0.10;;;14.40;99.90;;;;;;4999719;28;20030;-80
2023/10/22 04:40:35;;;;;;;0.10;0.10;;;14.40;99.90;;;;;;4998974;28;20029;-80
2023/10/22 04:43:01;;;;;;;0.10;0.10;;;14.40;99.90;;;;;;4997302;28;20022;-80
2023/10/22 04:45:27;;;;;;;0.10;0.10;;;14.50;99.90;;;;;;4986294;28;20056;-80
2023/10/22 04:47:55;;;;;;;0.65;0.22;;;14.40;99.90;;;;;;4997632;28;20616;-80
2023/10/22 04:50:21;;;;;;;0.10;0.10;;;14.30;99.90;;;;;;4999051;28;20069;-81
2023/10/22 04:52:47;;;;;;;0.10;0.10;;;14.40;99.90;;;;;;4999336;28;20014;-80
2023/10/22 04:55:13;;;;;;;0.10;0.10;;;14.40;99.90;;;;;;4999674;28;20030;-80
2023/10/22 04:57:38;;;;;;;0.10;0.10;;;14.30;99.90;;;;;;4979131;28;20105;-80
2023/10/22 05:00:09;;;;;;;0.10;0.10;;;14.40;99.90;;;;;;5011999;28;20038;-81
2023/10/22 05:02:35;;;;;;;0.15;0.15;;;14.30;99.90;;;;;;4978787;28;20023;-80
2023/10/22 05:05:01;;;;;;;0.10;0.10;;;14.40;99.90;;;;;;4998055;28;20037;-80
2023/10/22 05:07:27;;;;;;;0.10;0.10;;;14.40;99.90;;;;;;4996364;28;20130;-80
2023/10/22 05:09:52;;;;;;;0.30;0.30;;;14.40;99.90;;;;;;4994610;28;20487;-80
2023/10/22 05:12:18;;;;;;;0.20;0.20;;;14.40;99.90;;;;;;4999021;28;20117;-83
2023/10/22 05:14:43;;;;;;;0.10;0.10;;;14.50;99.90;;;;;;4998485;28;20073;-80
2023/10/22 05:17:09;;;;;;;0.57;0.57;;;14.50;99.90;;;;;;4999246;28;20030;-80
2023/10/22 05:19:35;;;;;;;0.10;0.10;;;14.50;99.90;;;;;;4995618;28;20461;-80
2023/10/22 05:22:01;;;;;;;0.30;0.30;;;14.50;99.90;;;;;;5013014;28;20112;-80
2023/10/22 05:24:27;;;;;;;0.13;0.13;;;14.50;99.90;;;;;;4995640;28;20033;-80
2023/10/22 05:26:53;;;;;;;0.20;0.20;;;14.50;99.90;;;;;;4995753;28;20022;-80
2023/10/22 05:29:18;;;;;;;0.10;0.10;;;14.50;99.90;;;;;;4978867;28;20113;-80
2023/10/22 05:31:44;;;;;;;0.20;0.20;;;14.50;99.90;;;;;;4977812;28;20113;-80
2023/10/22 05:34:10;;;;;;;0.13;0.13;;;14.60;99.90;;;;;;4995786;28;20026;-80
2023/10/22 05:36:36;;;;;;;0.10;0.10;;;14.60;99.90;;;;;;4982636;28;20018;-80
2023/10/22 05:39:02;;;;;;;0.15;0.15;;;14.50;99.90;;;;;;4998520;28;20029;-80
2023/10/22 05:41:28;;;;;;;0.10;0.10;;;14.60;99.90;;;;;;4997532;28;20489;-80
2023/10/22 05:44:01;;;;;;;0.10;0.10;;;14.60;99.90;;;;;;4990782;28;20032;-80
2023/10/22 05:46:34;;;;;;;0.20;0.20;;;14.60;99.90;;;;;;4998972;28;20092;-80
2023/10/22 05:49:00;;;;;;;0.20;0.20;;;14.60;99.90;;;;;;4992650;28;20108;-80
2023/10/22 05:51:26;;;;;;;0.10;0.10;;;14.50;99.90;;;;;;4984923;28;20117;-80
2023/10/22 05:53:51;;;;;;;0.20;0.20;;;14.50;99.90;;;;;;4982456;28;20112;-80
2023/10/22 05:56:17;;;;;;;0.20;0.20;;;14.50;99.90;;;;;;4976738;28;20448;-79
2023/10/22 05:58:43;;;;;;;0.20;0.20;;;14.40;99.90;;;;;;4996295;28;20093;-80
2023/10/22 06:01:09;;;;;;;0.10;0.10;;;14.40;99.90;;;;;;4997713;28;20044;-79
2023/10/22 06:03:35;;;;;;;0.10;0.10;;;14.40;99.90;;;;;;4991888;28;20121;-80
2023/10/22 06:06:01;;;;;;;0.90;0.90;;;14.40;99.90;;;;;;4997888;28;20113;-80
2023/10/22 06:08:26;;;;;;;0.20;0.20;;;14.40;99.90;;;;;;4980264;28;20052;-79
2023/10/22 06:10:53;;;;;;;0.10;0.10;;;14.40;99.90;;;;;;4999560;28;20026;-80
2023/10/22 06:13:19;;;;;;;0.20;0.20;;;14.40;99.90;;;;;;4999754;28;20027;-80
2023/10/22 06:15:47;;;;;;;0.20;0.20;;;14.40;99.90;;;;;;5000531;28;20265;-80
2023/10/22 06:18:13;;;;;;;0.20;0.20;;;14.40;99.90;;;;;;4988546;28;20110;-80
2023/10/22 06:20:39;;;;;;;0.10;0.10;;;14.30;99.90;;;;;;4999026;28;20105;-80
2023/10/22 06:23:08;;;;;;;0.13;0.13;;;14.30;99.90;;;;;;5002198;28;20079;-80
2023/10/22 06:25:34;;;;;;;0.10;0.10;;;14.30;99.90;;;;;;4981549;28;20041;-80
2023/10/22 06:28:00;;;;;;;0.20;0.20;;;14.20;99.90;;;;;;5003224;28;20038;-81
2023/10/22 06:30:27;;;;;;;0.20;0.20;;;14.20;99.90;;;;;;4999855;28;20563;-81
2023/10/22 06:32:58;;;;;;;0.20;0.20;;;14.20;99.90;;;;;;4979902;28;20385;-80
2023/10/22 06:35:26;;;;;;;0.20;0.20;;;14.20;99.90;;;;;;5001739;28;20085;-80
2023/10/22 06:37:52;;;;;;;0.50;0.50;;;14.10;99.90;;;;;;4982067;28;20053;-81
2023/10/22 06:40:20;;;;;;;0.10;0.10;;;14.30;99.90;;;;;;4999055;28;20509;-81
2023/10/22 06:42:47;;;;;;;0.10;0.10;;;14.20;99.90;;;;;;4999861;28;20021;-80
2023/10/22 06:45:12;;;;;;;0.10;0.10;;;14.20;99.90;;;;;;4996196;28;20022;-80
2023/10/22 06:47:38;;;;;;;0.10;0.10;;;14.20;99.90;;;;;;4998132;28;20075;-80
2023/10/22 06:50:11;;;;;;;0.10;0.10;;;14.20;99.90;;;;;;5001212;28;20022;-80
2023/10/22 06:52:37;;;;;;;0.20;0.20;;;14.10;99.90;;;;;;5000566;28;20017;-80
2023/10/22 06:55:05;;;;;;;0.40;0.40;;;14.20;99.90;;;;;;5001072;28;20393;-80
2023/10/22 06:57:31;;;;;;;0.20;0.20;;;14.20;99.90;;;;;;4995199;28;20080;-80
2023/10/22 06:59:58;;;;;;;0.20;0.20;;;14.10;99.90;;;;;;4999546;28;20050;-80
2023/10/22 07:02:27;;;;;;;0.15;0.15;;;14.10;99.90;;;;;;4980383;28;20113;-81
2023/10/22 07:04:53;;;;;;;0.20;0.20;;;14.00;99.90;;;;;;4997503;28;20493;-81
2023/10/22 07:07:20;;;;;;;0.10;0.10;;;14.10;99.90;;;;;;4984857;28;20045;-81
2023/10/22 07:09:45;;;;;;;0.10;0.10;;;14.00;99.90;;;;;;5013706;28;20041;-80
2023/10/22 07:12:11;;;;;;;0.20;0.20;;;14.00;99.90;;;;;;4984760;28;20026;-80
2023/10/22 07:14:37;;;;;;;0.20;0.20;;;14.00;99.90;;;;;;5002180;28;20041;-80
2023/10/22 07:17:02;;;;;;;0.15;0.15;;;14.00;99.90;;;;;;4980882;28;20030;-80
2023/10/22 07:19:28;;;;;;;0.17;0.17;;;14.00;99.90;;;;;;5011221;28;21354;-80
2023/10/22 07:21:54;;;;;;;0.20;0.20;;;14.00;99.90;;;;;;4999134;28;20026;-80
2023/10/22 07:24:20;;;;;;;0.10;0.10;;;14.00;99.90;;;;;;4978996;28;20034;-80
2023/10/22 07:26:46;;;;;;;0.10;0.10;;;14.00;99.90;;;;;;4999616;28;20026;-80
2023/10/22 07:29:12;;;;;;;0.10;0.10;;;14.00;99.90;;;;;;5000475;28;20038;-83
2023/10/22 07:31:38;;;;;;;0.20;0.20;;;14.00;99.90;;;;;;4991089;28;20033;-80
2023/10/22 07:34:04;;;;;;;0.10;0.10;;;14.00;99.90;;;;;;4980041;28;20029;-80
2023/10/22 07:36:30;;;;;;;0.20;0.20;;;13.90;99.90;;;;;;4979245;28;20075;-80
2023/10/22 07:38:58;;;;;;;0.15;0.15;;;14.10;99.90;;;;;;5004100;28;20078;-80
2023/10/22 07:41:24;;;;;;;0.10;0.10;;;14.10;99.90;;;;;;4998812;28;20618;-80
2023/10/22 07:43:50;;;;;;;0.13;0.13;;;14.20;99.90;;;;;;4999146;28;20049;-80
2023/10/22 07:46:16;;;;;;;0.20;0.20;;;14.30;99.90;;;;;;4998960;28;20029;-80
2023/10/22 07:48:42;;;;;;;0.13;0.13;;;14.30;99.90;;;;;;5000636;28;20036;-80
2023/10/22 07:51:13;;;;;;;0.10;0.10;;;14.40;99.90;;;;;;4998733;28;20038;-81
2023/10/22 07:53:39;;;;;;;0.10;0.10;;;14.50;99.90;;;;;;4998458;28;20378;-80
2023/10/22 07:56:08;;;;;;;0.30;0.30;;;14.50;99.90;;;;;;4980692;28;20026;-82
2023/10/22 07:58:35;;;;;;;0.10;0.10;;;14.50;99.90;;;;;;4980343;28;20417;-80
2023/10/22 08:01:01;;;;;;;0.10;0.10;;;14.50;99.90;;;;;;4999385;28;20430;-81
2023/10/22 08:03:30;;;;;;;0.10;0.10;;;14.60;99.90;;;;;;4979227;28;20041;-81
2023/10/22 08:06:00;;;;;;;0.20;0.20;;;14.60;99.90;;;;;;4998202;28;20072;-81
2023/10/22 08:08:25;;;;;;;0.17;0.17;;;14.60;99.90;;;;;;4978096;28;20529;-80
2023/10/22 08:10:55;;;;;;;2.42;1.80;;;14.50;99.90;;;;;;4974810;28;20044;-80
2023/10/22 08:13:21;;;;;;;0.30;0.30;;;14.60;99.90;;;;;;4974218;28;20168;-81
2023/10/22 08:15:47;;;;;;;0.20;0.20;;;14.60;99.90;;;;;;4980396;28;20495;-81
2023/10/22 08:18:12;;;;;;;0.20;0.20;;;14.80;99.90;;;;;;4996638;28;20034;-81
2023/10/22 08:20:38;;;;;;;0.20;0.20;;;14.70;99.90;;;;;;5000731;28;20052;-81
2023/10/22 08:23:04;;;;;;;0.10;0.10;;;14.70;99.90;;;;;;4997711;28;20021;-81
2023/10/22 08:25:29;;;;;;;0.20;0.20;;;14.80;99.90;;;;;;4996664;28;20048;-81
2023/10/22 08:27:55;;;;;;;0.50;0.40;;;14.80;99.90;;;;;;4983896;28;20113;-80
2023/10/22 08:30:22;;;;;;;0.20;0.20;;;14.90;99.90;;;;;;5000047;28;20026;-81
2023/10/22 08:32:48;;;;;;;0.10;0.10;;;14.90;99.90;;;;;;4986138;28;20021;-82
2023/10/22 08:35:14;;;;;;;0.20;0.20;;;15.00;99.90;;;;;;4979291;28;20038;-81
2023/10/22 08:37:41;;;;;;;0.28;0.28;;;15.00;99.90;;;;;;4995377;28;20034;-82
2023/10/22 08:40:11;;;;;;;0.20;0.20;;;15.00;99.90;;;;;;4981259;28;20149;-83
2023/10/22 08:42:39;;;;;;;0.20;0.20;;;15.00;99.90;;;;;;4981701;28;20038;-82
2023/10/22 08:45:07;;;;;;;0.20;0.20;;;15.00;99.90;;;;;;4997039;28;20113;-82
2023/10/22 08:47:34;;;;;;;0.20;0.20;;;15.10;99.90;;;;;;4997413;28;20030;-81
2023/10/22 08:50:02;;;;;;;0.20;0.20;;;15.10;99.90;;;;;;4999161;28;20488;-81
2023/10/22 08:52:30;;;;;;;0.20;0.20;;;15.20;99.90;;;;;;4979756;28;20477;-81
2023/10/22 08:54:58;;;;;;;0.20;0.20;;;15.30;99.90;;;;;;4998798;28;20700;-82
2023/10/22 08:57:28;;;;;;;0.20;0.20;;;15.20;99.90;;;;;;4979329;28;20116;-82
2023/10/22 08:59:54;;;;;;;0.20;0.20;;;15.40;99.90;;;;;;4996130;28;20228;-82
2023/10/22 09:02:26;;;;;;;0.20;0.20;;;15.40;99.90;;;;;;5000184;28;20437;-82
2023/10/22 09:04:53;;;;;;;0.20;0.20;;;15.50;99.90;;;;;;4977207;28;20049;-82
2023/10/22 09:07:18;;;;;;;0.28;0.28;;;15.60;99.90;;;;;;4993984;28;20037;-82
2023/10/22 09:09:44;;;;;;;0.15;0.15;;;15.80;99.90;;;;;;4994892;28;20080;-82
2023/10/22 09:12:10;;;;;;;0.20;0.20;;;15.80;99.90;;;;;;4994890;28;20416;-80
2023/10/22 09:14:37;;;;;;;2.42;1.08;;;15.90;99.90;;;;;;4980343;28;20072;-80
2023/10/22 09:17:19;;;;;;;0.55;0.55;;;16.00;99.90;;;;;;4993873;28;20033;-81
2023/10/22 09:19:49;;;;;;;0.20;0.20;;;16.10;99.90;;;;;;4997887;28;20034;-81
2023/10/22 09:22:25;;;;;;;0.20;0.20;;;16.10;99.90;;;;;;4995872;28;20486;-82
2023/10/22 09:24:57;;;;;;;0.20;0.20;;;16.20;99.90;;;;;;4994836;28;20449;-82
2023/10/22 09:27:24;;;;;;;0.20;0.20;;;16.30;99.90;;;;;;4979010;28;20030;-82
2023/10/22 09:29:50;;;;;;;0.20;0.20;;;16.20;99.90;;;;;;4994921;28;20078;-81
2023/10/22 09:32:16;;;;;;;0.40;0.30;;;16.30;99.90;;;;;;4995413;28;20026;-81
2023/10/22 09:34:42;;;;;;;0.20;0.20;;;16.50;99.90;;;;;;4994212;28;20084;-82
2023/10/22 09:37:07;;;;;;;0.20;0.20;;;16.60;99.90;;;;;;4986337;28;20747;-81
2023/10/22 09:39:43;;;;;;;0.20;0.20;;;16.60;99.90;;;;;;4997878;28;20095;-82
2023/10/22 09:42:11;;;;;;;0.20;0.20;;;16.80;99.90;;;;;;5005577;28;20038;-81
2023/10/22 09:44:38;;;;;;;0.20;0.20;;;16.80;99.90;;;;;;4998219;28;20027;-81
2023/10/22 09:47:08;;;;;;;0.20;0.20;;;16.90;99.90;;;;;;4982883;28;20034;-81
2023/10/22 09:49:35;;;;;;;0.20;0.20;;;16.80;99.90;;;;;;5000299;28;20473;-81
2023/10/22 09:52:06;;;;;;;0.30;0.30;;;16.90;99.90;;;;;;5002444;28;20030;-81
2023/10/22 09:54:38;;;;;;;0.20;0.20;;;17.10;99.90;;;;;;5014808;28;20033;-81
2023/10/22 09:57:08;;;;;;;0.20;0.20;;;17.30;99.90;;;;;;4998440;28;20040;-79
2023/10/22 09:59:34;;;;;;;0.30;0.30;;;17.40;99.90;;;;;;4988197;28;20031;-81
2023/10/22 10:02:04;;;;;;;2.75;0.60;;;17.40;99.90;;;;;;4984824;28;20030;-81
2023/10/22 10:04:32;;;;;;;0.20;0.20;;;17.30;99.90;;;;;;4981749;28;20114;-81
2023/10/22 10:07:02;;;;;;;0.20;0.20;;;17.10;99.90;;;;;;5013593;28;20716;-81
2023/10/22 10:09:28;;;;;;;0.20;0.20;;;17.00;99.90;;;;;;4982578;28;20497;-81
2023/10/22 10:11:56;;;;;;;0.20;0.20;;;17.00;99.90;;;;;;5011751;28;20026;-81
2023/10/22 10:14:36;;;;;;;0.20;0.20;;;17.10;99.90;;;;;;4979805;28;20481;-80
2023/10/22 10:17:03;;;;;;;0.52;0.52;;;17.20;99.90;;;;;;5002073;28;20273;-81
2023/10/22 10:19:29;;;;;;;0.20;0.20;;;17.10;99.90;;;;;;4997735;28;20030;-81
2023/10/22 10:21:55;;;;;;;0.20;0.20;;;17.10;99.90;;;;;;5005274;28;20030;-81
2023/10/22 10:24:25;;;;;;;0.20;0.20;;;17.00;99.90;;;;;;4998766;28;20049;-81
2023/10/22 10:26:57;;;;;;;0.20;0.20;;;17.10;99.90;;;;;;4998813;28;20034;-80
2023/10/22 10:29:32;;;;;;;0.20;0.20;;;17.20;99.90;;;;;;4982648;28;20049;-81
2023/10/22 10:32:29;;;;;;;0.20;0.20;;;17.20;99.90;;;;;;4999206;28;20026;-81
2023/10/22 10:35:00;;;;;;;0.30;0.30;;;17.30;99.90;;;;;;4979412;28;20037;-81
2023/10/22 10:37:26;;;;;;;0.28;0.28;;;17.30;99.90;;;;;;4999110;28;20076;-80
2023/10/22 10:39:53;;;;;;;0.30;0.30;;;17.30;99.90;;;;;;5000361;28;20034;-81
2023/10/22 10:42:33;;;;;;;0.30;0.30;;;17.30;99.90;;;;;;5001332;28;20703;-81
2023/10/22 10:44:59;;;;;;;0.20;0.20;;;17.20;99.90;;;;;;4980234;28;20037;-80
2023/10/22 10:47:24;;;;;;;0.30;0.30;;;17.20;99.90;;;;;;4980218;28;20033;-81
2023/10/22 10:49:50;;;;;;;0.30;0.30;;;17.20;99.90;;;;;;4982533;28;20022;-81
2023/10/22 10:52:15;;;;;;;0.30;0.30;;;17.30;99.90;;;;;;4996907;28;20028;-81
2023/10/22 10:55:15;;;;;;;0.20;0.20;;;17.50;99.90;;;;;;4989066;28;20396;-80
2023/10/22 10:57:52;;;;;;;0.30;0.30;;;17.80;99.90;;;;;;4997856;28;20476;-81
2023/10/22 11:00:29;;;;;;;0.20;0.20;;;17.90;99.90;;;;;;4999234;28;20450;-81
2023/10/22 11:03:06;;;;;;;0.20;0.20;;;17.60;99.90;;;;;;4981674;28;20021;-81
2023/10/22 11:05:42;;;;;;;0.28;0.28;;;17.30;99.90;;;;;;5002641;28;20018;-81
2023/10/22 11:08:11;;;;;;;0.22;0.22;;;17.50;99.90;;;;;;5002085;28;20029;-81
2023/10/22 11:10:37;;;;;;;1.10;0.65;;;17.70;99.90;;;;;;4981133;28;20046;-81
2023/10/22 11:13:07;;;;;;;0.30;0.30;;;17.70;99.90;;;;;;5001909;28;20111;-81
2023/10/22 11:15:35;;;;;;;0.40;0.40;;;17.70;99.90;;;;;;4998325;28;20076;-81
2023/10/22 11:18:09;;;;;;;0.20;0.20;;;17.70;99.90;;;;;;4981308;28;20381;-81
2023/10/22 11:20:36;;;;;;;0.40;0.40;;;17.60;99.90;;;;;;4996707;28;20477;-81
2023/10/22 11:23:02;;;;;;;0.20;0.20;;;17.50;99.90;;;;;;4999474;28;20049;-81
2023/10/22 11:25:28;;;;;;;0.25;0.25;;;17.30;99.90;;;;;;5001892;28;20045;-81
2023/10/22 11:27:54;;;;;;;0.30;0.30;;;17.50;99.90;;;;;;4997445;28;20030;-81
2023/10/22 11:30:54;;;;;;;0.30;0.30;;;17.50;99.90;;;;;;4986140;28;20033;-81
2023/10/22 11:33:32;;;;;;;0.20;0.20;;;17.40;99.90;;;;;;4951462;28;20509;-81
2023/10/22 11:35:58;;;;;;;0.25;0.25;;;17.30;99.90;;;;;;4992495;28;20045;-81
2023/10/22 11:38:23;;;;;;;0.20;0.20;;;17.20;99.90;;;;;;4978083;28;20062;-81
2023/10/22 11:40:59;;;;;;;0.20;0.20;;;17.20;99.90;;;;;;4998643;28;20072;-81
2023/10/22 11:43:26;;;;;;;1.08;0.50;;;17.30;99.90;;;;;;4987796;28;20022;-81
2023/10/22 11:45:56;;;;;;;0.68;0.68;;;17.20;99.90;;;;;;4994793;28;20027;-81
2023/10/22 11:48:26;;;;;;;0.55;0.55;;;17.20;99.90;;;;;;4979611;28;20109;-81
2023/10/22 11:51:00;;;;;;;0.20;0.20;;;17.10;99.90;;;;;;4984033;28;20025;-81
2023/10/22 11:53:43;;;;;;;0.20;0.20;;;17.00;99.90;;;;;;4997958;28;20034;-80
2023/10/22 11:56:09;;;;;;;;;;;17.10;99.90;;;;;;4985456;28;20049;-80
2023/10/22 11:58:34;;;;;;;0.13;0.13;;;17.20;99.90;;;;;;4980619;28;19944;-80
2023/10/22 12:01:02;;;;;;;0.38;0.38;;;17.10;99.90;;;;;;5003876;28;20029;-81
2023/10/22 12:03:27;;;;;;;0.32;0.32;;;17.00;99.90;;;;;;4998660;28;20181;-80
2023/10/22 12:06:00;;;;;;;0.20;0.20;;;16.80;99.90;;;;;;4993912;28;20141;-81
2023/10/22 12:08:27;;;;;;;0.10;0.10;;;16.70;99.90;;;;;;4995234;28;20026;-81
2023/10/22 12:10:52;;;;;;;0.20;0.20;;;16.60;99.90;;;;;;4990816;28;20681;-80
2023/10/22 12:13:18;;;;;;;0.32;0.32;;;16.60;99.90;;;;;;4995466;28;20037;-81
2023/10/22 12:15:44;;;;;;;0.20;0.20;;;16.50;99.90;;;;;;4997775;28;20465;-81
2023/10/22 12:18:09;;;;;;;0.20;0.20;;;16.60;99.90;;;;;;4994272;28;20537;-80
2023/10/22 12:20:35;;;;;;;0.20;0.20;;;16.70;99.90;;;;;;4998233;28;20033;-81
2023/10/22 12:23:01;;;;;;;0.20;0.20;;;16.70;99.90;;;;;;4994661;28;20520;-81
2023/10/22 12:25:30;;;;;;;0.28;0.28;;;16.80;99.90;;;;;;4996658;28;20470;-80
2023/10/22 12:27:56;;;;;;;0.20;0.20;;;16.90;99.90;;;;;;4995705;28;20088;-81
2023/10/22 12:30:24;;;;;;;0.20;0.20;;;16.90;99.90;;;;;;4997581;28;20030;-80
2023/10/22 12:32:50;;;;;;;0.20;0.20;;;16.90;99.90;;;;;;4979491;28;20026;-80
2023/10/22 12:35:15;;;;;;;0.20;0.20;;;16.90;99.90;;;;;;4993923;28;20389;-80
2023/10/22 12:37:41;;;;;;;0.30;0.30;;;17.20;99.90;;;;;;4995032;28;20058;-80
2023/10/22 12:40:07;;;;;;;0.20;0.20;;;17.20;99.90;;;;;;4995702;28;20076;-80
2023/10/22 12:42:34;;;;;;;0.30;0.30;;;17.30;99.90;;;;;;4996201;28;20317;-81
2023/10/22 12:45:00;;;;;;;0.40;0.40;;;17.30;99.90;;;;;;4994033;28;20061;-81
2023/10/22 12:47:25;;;;;;;0.30;0.30;;;17.00;99.90;;;;;;4993055;28;20049;-81
2023/10/22 12:49:51;;;;;;;0.25;0.25;;;17.00;99.90;;;;;;4996609;28;20041;-81